createdAt,value
2023-03-13T00:01:13.328Z,4.20
2023-03-13T00:03:40.034Z,3.40
2023-03-13T00:06:07.395Z,4.30
2023-03-13T00:08:34.068Z,3.57
2023-03-13T00:11:06.628Z,3.40
2023-03-13T00:13:33.456Z,3.40
2023-03-13T00:16:06.021Z,3.13
2023-03-13T00:18:33.065Z,3.77
2023-03-13T00:21:05.097Z,4.00
2023-03-13T00:23:33.237Z,4.10
2023-03-13T00:26:05.373Z,3.07
2023-03-13T00:28:33.498Z,3.73
2023-03-13T00:31:13.346Z,3.90
2023-03-13T00:33:44.958Z,4.53
2023-03-13T00:36:17.238Z,3.77
2023-03-13T00:38:44.412Z,4.07
2023-03-13T00:41:12.330Z,4.00
2023-03-13T00:43:40.480Z,3.30
2023-03-13T00:46:08.355Z,3.50
2023-03-13T00:48:35.915Z,4.23
2023-03-13T00:51:03.678Z,4.20
2023-03-13T00:53:30.768Z,4.37
2023-03-13T00:56:00.037Z,4.00
2023-03-13T00:58:29.557Z,3.00
2023-03-13T01:00:56.340Z,3.27
2023-03-13T01:03:25.723Z,3.10
2023-03-13T01:05:57.083Z,3.60
2023-03-13T01:08:26.581Z,3.17
2023-03-13T01:11:11.027Z,3.77
2023-03-13T01:13:38.271Z,3.40
2023-03-13T01:16:16.929Z,3.07
2023-03-13T01:18:46.716Z,3.47
2023-03-13T01:21:14.864Z,3.50
2023-03-13T01:23:41.723Z,3.17
2023-03-13T01:26:10.173Z,3.27
2023-03-13T01:28:37.774Z,3.13
2023-03-13T01:31:17.404Z,3.77
2023-03-13T01:33:44.984Z,3.70
2023-03-13T01:36:12.381Z,3.23
2023-03-13T01:38:39.771Z,2.73
2023-03-13T01:41:08.142Z,2.80
2023-03-13T01:43:36.586Z,3.33
2023-03-13T01:46:18.477Z,2.70
2023-03-13T01:49:09.765Z,3.50
2023-03-13T01:51:58.250Z,2.90
2023-03-13T01:54:32.495Z,3.17
2023-03-13T01:57:11.974Z,3.67
2023-03-13T01:59:43.998Z,3.07
2023-03-13T02:02:11.690Z,3.20
2023-03-13T02:04:42.298Z,3.63
2023-03-13T02:07:18.364Z,4.47
2023-03-13T02:09:51.017Z,2.67
2023-03-13T02:12:34.127Z,3.00
2023-03-13T02:15:05.632Z,2.53
2023-03-13T02:17:35.384Z,3.60
2023-03-13T02:20:03.956Z,2.80
2023-03-13T02:22:43.111Z,3.73
2023-03-13T02:25:25.200Z,3.50
2023-03-13T02:28:03.260Z,3.30
2023-03-13T02:30:33.354Z,3.33
2023-03-13T02:33:01.326Z,3.53
2023-03-13T02:35:29.193Z,4.10
2023-03-13T02:38:02.808Z,3.10
2023-03-13T02:40:38.706Z,3.00
2023-03-13T02:43:10.740Z,2.73
2023-03-13T02:45:38.006Z,2.90
2023-03-13T02:48:04.768Z,4.47
2023-03-13T02:50:31.396Z,2.93
2023-03-13T02:53:04.961Z,3.23
2023-03-13T02:55:39.400Z,3.07
2023-03-13T02:58:06.357Z,3.53
2023-03-13T03:00:35.930Z,3.30
2023-03-13T03:03:02.621Z,2.73
2023-03-13T03:05:29.342Z,2.77
2023-03-13T03:07:57.680Z,3.23
2023-03-13T03:10:25.088Z,2.73
2023-03-13T03:12:52.148Z,3.10
2023-03-13T03:15:18.894Z,3.13
2023-03-13T03:17:48.069Z,2.90
2023-03-13T03:20:14.842Z,3.87
2023-03-13T03:22:43.193Z,2.57
2023-03-13T03:25:10.124Z,2.63
2023-03-13T03:27:37.202Z,2.53
2023-03-13T03:30:07.334Z,2.93
2023-03-13T03:32:35.840Z,3.33
2023-03-13T03:35:02.698Z,4.23
2023-03-13T03:37:29.378Z,3.30
2023-03-13T03:39:56.799Z,2.53
2023-03-13T03:42:23.649Z,2.80
2023-03-13T03:44:50.727Z,3.10
2023-03-13T03:47:18.973Z,3.03
2023-03-13T03:49:47.599Z,2.97
2023-03-13T03:52:15.671Z,4.83
2023-03-13T03:54:43.757Z,2.87
2023-03-13T03:57:10.611Z,3.00
2023-03-13T03:59:38.264Z,3.13
2023-03-13T04:02:09.358Z,2.97
2023-03-13T04:04:36.966Z,2.60
2023-03-13T04:07:08.054Z,2.60
2023-03-13T04:09:35.605Z,3.00
2023-03-13T04:12:04.075Z,2.10
2023-03-13T04:14:34.852Z,2.20
2023-03-13T04:17:04.761Z,2.67
2023-03-13T04:19:31.412Z,2.87
2023-03-13T04:21:58.420Z,2.10
2023-03-13T04:24:25.472Z,1.73
2023-03-13T04:26:52.086Z,1.93
2023-03-13T04:29:19.935Z,3.30
2023-03-13T04:32:05.520Z,1.70
2023-03-13T04:34:51.062Z,1.40
2023-03-13T04:37:28.449Z,2.27
2023-03-13T04:40:21.369Z,1.60
2023-03-13T04:43:06.826Z,1.60
2023-03-13T04:45:58.958Z,1.23
2023-03-13T04:49:00.892Z,1.30
2023-03-13T04:52:06.606Z,1.20
2023-03-13T04:54:52.131Z,1.20
2023-03-13T04:57:44.916Z,1.30
2023-03-13T05:00:36.734Z,1.60
2023-03-13T05:03:25.838Z,1.00
2023-03-13T05:05:58.303Z,1.27
2023-03-13T05:08:54.526Z,0.77
2023-03-13T05:11:40.297Z,0.97
2023-03-13T05:14:21.898Z,0.80
2023-03-13T05:17:12.517Z,0.70
2023-03-13T05:19:56.640Z,0.60
2023-03-13T05:22:34.710Z,0.57
2023-03-13T05:25:16.029Z,0.60
2023-03-13T05:27:57.018Z,0.80
2023-03-13T05:30:33.091Z,1.10
2023-03-13T05:33:08.910Z,0.93
2023-03-13T05:35:55.863Z,0.90
2023-03-13T05:38:41.561Z,0.80
2023-03-13T05:41:21.654Z,1.10
2023-03-13T05:44:00.333Z,0.67
2023-03-13T05:46:45.645Z,0.60
2023-03-13T05:49:35.129Z,0.90
2023-03-13T05:52:10.798Z,0.80
2023-03-13T05:54:47.677Z,0.90
2023-03-13T05:57:32.918Z,0.63
2023-03-13T06:00:09.336Z,0.80
2023-03-13T06:03:04.798Z,0.80
2023-03-13T06:05:36.374Z,0.60
2023-03-13T06:08:07.337Z,1.00
2023-03-13T06:10:34.072Z,0.80
2023-03-13T06:13:13.731Z,0.90
2023-03-13T06:15:56.589Z,0.60
2023-03-13T06:18:38.323Z,0.80
2023-03-13T06:21:05.461Z,0.77
2023-03-13T06:23:33.077Z,0.83
2023-03-13T06:26:00.603Z,0.80
2023-03-13T06:28:27.659Z,0.70
2023-03-13T06:30:55.273Z,0.63
2023-03-13T06:33:22.650Z,0.70
2023-03-13T06:35:56.797Z,0.70
2023-03-13T06:38:26.931Z,1.07
2023-03-13T06:40:54.360Z,0.60
2023-03-13T06:43:21.914Z,0.50
2023-03-13T06:45:48.609Z,0.83
2023-03-13T06:48:15.655Z,1.17
2023-03-13T06:50:43.229Z,2.00
2023-03-13T06:53:16.898Z,5.13
2023-03-13T06:55:44.154Z,3.63
2023-03-13T06:58:21.807Z,1.33
2023-03-13T07:00:56.096Z,1.10
2023-03-13T07:03:22.806Z,1.00
2023-03-13T07:05:55.062Z,0.87
2023-03-13T07:08:21.706Z,0.90
2023-03-13T07:10:52.187Z,1.40
2023-03-13T07:13:22.553Z,1.43
2023-03-13T07:15:49.717Z,1.40
2023-03-13T07:18:16.333Z,1.20
2023-03-13T07:20:43.542Z,2.63
2023-03-13T07:23:10.719Z,2.80
2023-03-13T07:25:37.833Z,1.20
2023-03-13T07:28:04.945Z,1.10
2023-03-13T07:30:31.567Z,0.97
2023-03-13T07:32:58.634Z,1.00
2023-03-13T07:35:25.785Z,0.80
2023-03-13T07:37:52.967Z,1.17
2023-03-13T07:40:20.113Z,0.90
2023-03-13T07:42:46.690Z,1.00
2023-03-13T07:45:13.482Z,1.70
2023-03-13T07:47:40.561Z,1.10
2023-03-13T07:50:08.403Z,1.23
2023-03-13T07:52:35.534Z,2.30
2023-03-13T07:55:02.597Z,1.40
2023-03-13T07:57:29.214Z,1.23
2023-03-13T07:59:55.831Z,1.10
2023-03-13T08:02:22.984Z,1.33
2023-03-13T08:04:53.032Z,0.90
2023-03-13T08:07:19.868Z,1.20
2023-03-13T08:09:46.497Z,0.90
2023-03-13T08:12:13.118Z,0.70
2023-03-13T08:14:40.146Z,0.90
2023-03-13T08:17:07.334Z,1.40
2023-03-13T08:19:34.442Z,1.17
2023-03-13T08:22:01.473Z,1.33
2023-03-13T08:24:28.097Z,0.77
2023-03-13T08:26:55.122Z,1.30
2023-03-13T08:29:21.737Z,1.33
2023-03-13T08:31:51.384Z,1.20
2023-03-13T08:34:18.933Z,0.93
2023-03-13T08:36:46.225Z,1.00
2023-03-13T08:39:17.886Z,1.47
2023-03-13T08:41:44.948Z,1.13
2023-03-13T08:44:14.156Z,1.30
2023-03-13T08:46:40.916Z,1.50
2023-03-13T08:49:08.305Z,1.77
2023-03-13T08:51:35.407Z,1.30
2023-03-13T08:54:03.416Z,1.13
2023-03-13T08:56:31.443Z,1.00
2023-03-13T08:59:00.782Z,1.43
2023-03-13T09:01:30.873Z,1.57
2023-03-13T09:03:58.384Z,1.30
2023-03-13T09:06:25.773Z,1.53
2023-03-13T09:08:52.993Z,2.10
2023-03-13T09:11:21.574Z,2.00
2023-03-13T09:13:50.156Z,1.83
2023-03-13T09:16:22.394Z,1.43
2023-03-13T09:18:50.309Z,1.80
2023-03-13T09:21:21.937Z,2.03
2023-03-13T09:23:49.152Z,2.60
2023-03-13T09:26:17.156Z,1.93
2023-03-13T09:28:43.825Z,1.60
2023-03-13T09:31:25.214Z,1.83
2023-03-13T09:33:52.391Z,1.67
2023-03-13T09:36:22.150Z,2.17
2023-03-13T09:38:50.503Z,1.70
2023-03-13T09:41:17.113Z,1.80
2023-03-13T09:44:08.601Z,2.07
2023-03-13T09:46:57.275Z,1.90
2023-03-13T09:49:44.061Z,1.60
2023-03-13T09:52:13.778Z,1.70
2023-03-13T09:54:52.015Z,1.90
2023-03-13T09:57:35.433Z,2.10
2023-03-13T10:00:14.741Z,2.30
2023-03-13T10:02:47.136Z,2.17
2023-03-13T10:05:26.224Z,2.37
2023-03-13T10:08:12.308Z,2.53
2023-03-13T10:11:09.691Z,2.47
2023-03-13T10:14:01.397Z,3.30
2023-03-13T10:16:31.276Z,2.87
2023-03-13T10:18:59.722Z,2.90
2023-03-13T10:21:33.655Z,2.40
2023-03-13T10:24:14.299Z,2.60
2023-03-13T10:26:40.892Z,2.00
2023-03-13T10:29:28.529Z,2.10
2023-03-13T10:32:07.022Z,1.80
2023-03-13T10:35:00.827Z,2.17
2023-03-13T10:37:33.216Z,2.00
2023-03-13T10:40:23.084Z,2.10
2023-03-13T10:42:52.528Z,2.00
2023-03-13T10:45:24.961Z,2.00
2023-03-13T10:47:56.891Z,2.67
2023-03-13T10:50:25.569Z,2.17
2023-03-13T10:52:52.858Z,2.03
2023-03-13T10:55:24.764Z,2.13
2023-03-13T10:58:02.775Z,2.10
2023-03-13T11:00:37.465Z,1.73
2023-03-13T11:03:18.205Z,1.93
2023-03-13T11:05:55.062Z,1.73
2023-03-13T11:08:27.662Z,2.07
2023-03-13T11:11:06.009Z,2.10
2023-03-13T11:13:43.566Z,2.23
2023-03-13T11:16:40.551Z,2.93
2023-03-13T11:19:13.358Z,1.90
2023-03-13T11:22:10.130Z,1.90
2023-03-13T11:24:37.366Z,1.90
2023-03-13T11:27:32.399Z,1.83
2023-03-13T11:30:23.264Z,2.33
2023-03-13T11:32:55.079Z,1.70
2023-03-13T11:35:43.421Z,2.20
2023-03-13T11:38:32.721Z,2.00
2023-03-13T11:41:32.781Z,1.33
2023-03-13T11:44:18.237Z,1.90
2023-03-13T11:47:05.160Z,1.90
2023-03-13T11:49:49.591Z,1.73
2023-03-13T11:52:52.620Z,1.43
2023-03-13T11:55:43.129Z,1.47
2023-03-13T11:58:25.858Z,1.20
2023-03-13T12:01:01.397Z,1.30
2023-03-13T12:03:33.906Z,1.00
2023-03-13T12:06:02.383Z,1.97
2023-03-13T12:08:50.942Z,1.23
2023-03-13T12:11:29.988Z,1.77
2023-03-13T12:14:06.536Z,1.07
2023-03-13T12:16:56.903Z,1.17
2023-03-13T12:19:37.356Z,1.27
2023-03-13T12:22:16.530Z,1.20
2023-03-13T12:24:58.168Z,0.83
2023-03-13T12:27:32.750Z,1.07
2023-03-13T12:30:07.299Z,0.63
2023-03-13T12:33:04.898Z,1.20
2023-03-13T12:35:33.687Z,0.70
2023-03-13T12:38:24.690Z,1.23
2023-03-13T12:41:12.310Z,0.90
2023-03-13T12:43:44.134Z,0.70
2023-03-13T12:46:33.633Z,0.80
2023-03-13T12:49:09.130Z,1.03
2023-03-13T12:52:02.362Z,1.10
2023-03-13T12:54:47.227Z,1.63
2023-03-13T12:57:41.997Z,1.00
2023-03-13T13:00:20.158Z,1.00
2023-03-13T13:02:47.420Z,0.93
2023-03-13T13:05:21.866Z,1.33
2023-03-13T13:07:56.446Z,0.77
2023-03-13T13:10:26.183Z,1.10
2023-03-13T13:13:14.849Z,1.20
2023-03-13T13:15:58.917Z,1.17
2023-03-13T13:18:28.553Z,0.90
2023-03-13T13:21:07.136Z,0.80
2023-03-13T13:23:34.218Z,1.07
2023-03-13T13:26:36.708Z,0.83
2023-03-13T13:29:12.507Z,0.70
2023-03-13T13:31:56.925Z,0.73
2023-03-13T13:34:52.674Z,1.10
2023-03-13T13:37:19.686Z,1.10
2023-03-13T13:39:49.924Z,0.83
2023-03-13T13:42:31.672Z,1.50
2023-03-13T13:45:14.777Z,0.90
2023-03-13T13:47:47.984Z,0.80
2023-03-13T13:50:26.760Z,2.50
2023-03-13T13:52:54.218Z,0.80
2023-03-13T13:55:29.783Z,0.50
2023-03-13T13:58:06.257Z,0.80
2023-03-13T14:00:43.072Z,0.50
2023-03-13T14:03:28.115Z,0.50
2023-03-13T14:06:17.371Z,0.70
2023-03-13T14:08:46.894Z,0.53
2023-03-13T14:11:38.705Z,0.53
2023-03-13T14:14:20.121Z,0.80
2023-03-13T14:16:52.252Z,0.60
2023-03-13T14:19:50.092Z,0.70
2023-03-13T14:22:17.196Z,0.67
2023-03-13T14:24:57.381Z,0.80
2023-03-13T14:27:24.029Z,0.50
2023-03-13T14:30:05.534Z,0.80
2023-03-13T14:32:32.768Z,0.70
2023-03-13T14:34:59.902Z,0.70
2023-03-13T14:37:40.841Z,0.50
2023-03-13T14:40:10.237Z,0.40
2023-03-13T14:42:47.156Z,0.57
2023-03-13T14:45:16.124Z,0.53
2023-03-13T14:47:43.248Z,1.20
2023-03-13T14:50:15.170Z,0.87
2023-03-13T14:52:49.601Z,0.80
2023-03-13T14:55:40.270Z,0.70
2023-03-13T14:58:25.105Z,0.83
2023-03-13T15:00:52.163Z,0.63
2023-03-13T15:03:21.352Z,0.50
2023-03-13T15:06:09.760Z,0.60
2023-03-13T15:08:42.203Z,0.80
2023-03-13T15:11:20.188Z,0.73
2023-03-13T15:13:47.525Z,0.80
2023-03-13T15:16:21.497Z,0.70
2023-03-13T15:18:49.668Z,0.80
2023-03-13T15:21:19.918Z,0.70
2023-03-13T15:23:51.263Z,1.03
2023-03-13T15:26:18.209Z,0.60
2023-03-13T15:28:45.695Z,1.10
2023-03-13T15:31:13.443Z,0.83
2023-03-13T15:33:40.787Z,1.03
2023-03-13T15:36:08.224Z,0.70
2023-03-13T15:38:35.668Z,1.00
2023-03-13T15:41:02.750Z,0.90
2023-03-13T15:43:29.781Z,0.80
2023-03-13T15:45:56.959Z,0.50
2023-03-13T15:48:27.566Z,0.67
2023-03-13T15:50:58.375Z,0.87
2023-03-13T15:53:30.053Z,0.70
2023-03-13T15:56:01.405Z,0.53
2023-03-13T15:58:29.655Z,0.80
2023-03-13T16:00:57.680Z,0.60
2023-03-13T16:03:26.632Z,0.60
2023-03-13T16:05:54.564Z,0.57
2023-03-13T16:08:34.674Z,1.30
2023-03-13T16:11:02.755Z,0.60
2023-03-13T16:13:31.294Z,0.77
2023-03-13T16:15:58.529Z,0.67
2023-03-13T16:18:25.480Z,1.07
2023-03-13T16:20:52.770Z,0.87
2023-03-13T16:23:19.857Z,0.60
2023-03-13T16:25:48.346Z,0.90
2023-03-13T16:28:15.730Z,0.70
2023-03-13T16:30:47.706Z,0.70
2023-03-13T16:33:15.235Z,1.77
2023-03-13T16:35:42.517Z,4.47
2023-03-13T16:38:11.533Z,1.53
2023-03-13T16:40:38.266Z,1.83
2023-03-13T16:43:05.325Z,1.00
2023-03-13T16:45:32.438Z,0.70
2023-03-13T16:47:59.505Z,1.40
2023-03-13T16:50:37.623Z,0.90
2023-03-13T16:53:04.567Z,0.90
2023-03-13T16:55:36.165Z,0.77
2023-03-13T16:58:04.045Z,0.87
2023-03-13T17:00:31.957Z,1.00
2023-03-13T17:02:59.368Z,0.77
2023-03-13T17:05:27.052Z,0.60
2023-03-13T17:07:54.375Z,0.90
2023-03-13T17:10:32.705Z,1.30
2023-03-13T17:13:00.420Z,1.37
2023-03-13T17:15:28.621Z,1.20
2023-03-13T17:17:56.019Z,1.10
2023-03-13T17:20:25.512Z,1.03
2023-03-13T17:22:52.622Z,1.30
2023-03-13T17:25:19.789Z,1.20
2023-03-13T17:27:48.403Z,1.13
2023-03-13T17:30:26.390Z,1.40
2023-03-13T17:32:53.785Z,1.13
2023-03-13T17:35:21.698Z,1.50
2023-03-13T17:37:48.977Z,1.47
2023-03-13T17:40:16.325Z,1.80
2023-03-13T17:42:43.343Z,1.60
2023-03-13T17:45:11.174Z,1.27
2023-03-13T17:47:38.367Z,1.63
2023-03-13T17:50:13.762Z,2.57
2023-03-13T17:52:40.825Z,1.67
2023-03-13T17:55:08.354Z,1.47
2023-03-13T17:57:35.389Z,1.40
2023-03-13T18:00:02.433Z,1.20
2023-03-13T18:02:39.108Z,3.77
2023-03-13T18:05:06.307Z,2.10
2023-03-13T18:07:33.348Z,1.70
2023-03-13T18:10:00.396Z,1.37
2023-03-13T18:12:27.436Z,1.00
2023-03-13T18:14:54.469Z,0.90
2023-03-13T18:17:23.240Z,1.00
2023-03-13T18:19:50.768Z,1.17
2023-03-13T18:22:21.441Z,1.20
2023-03-13T18:24:48.508Z,1.10
2023-03-13T18:27:20.988Z,1.00
2023-03-13T18:29:49.133Z,1.10
2023-03-13T18:32:17.340Z,0.93
2023-03-13T18:34:44.495Z,1.20
2023-03-13T18:37:32.998Z,0.90
2023-03-13T18:40:00.181Z,0.90
2023-03-13T18:42:27.613Z,1.23
2023-03-13T18:44:55.413Z,1.00
2023-03-13T18:47:24.957Z,1.10
2023-03-13T18:49:51.676Z,1.13
2023-03-13T18:52:18.791Z,1.30
2023-03-13T18:54:45.516Z,1.13
2023-03-13T18:57:14.702Z,1.20
2023-03-13T18:59:41.774Z,1.50
2023-03-13T19:02:17.108Z,1.30
2023-03-13T19:04:44.873Z,1.00
2023-03-13T19:07:14.423Z,1.47
2023-03-13T19:09:44.097Z,1.37
2023-03-13T19:12:12.553Z,1.10
2023-03-13T19:14:39.726Z,1.90
2023-03-13T19:17:28.875Z,2.00
2023-03-13T19:19:58.653Z,1.43
2023-03-13T19:22:26.244Z,1.30
2023-03-13T19:24:52.906Z,1.17
2023-03-13T19:27:19.953Z,2.50
2023-03-13T19:29:46.687Z,2.33
2023-03-13T19:32:18.295Z,2.50
2023-03-13T19:34:45.555Z,1.27
2023-03-13T19:37:14.098Z,1.80
2023-03-13T19:39:41.720Z,2.40
2023-03-13T19:42:09.040Z,1.97
2023-03-13T19:44:36.297Z,1.80
2023-03-13T19:47:04.521Z,1.10
2023-03-13T19:49:31.323Z,1.67
2023-03-13T19:51:58.590Z,1.07
2023-03-13T19:54:25.661Z,1.13
2023-03-13T19:56:53.462Z,1.43
2023-03-13T19:59:26.658Z,1.03
2023-03-13T20:01:55.601Z,1.10
2023-03-13T20:04:22.951Z,1.40
2023-03-13T20:06:50.021Z,1.10
2023-03-13T20:09:17.762Z,1.23
2023-03-13T20:11:44.910Z,1.47
2023-03-13T20:14:12.139Z,1.40
2023-03-13T20:16:38.972Z,1.40
2023-03-13T20:19:06.225Z,0.97
2023-03-13T20:21:35.800Z,1.23
2023-03-13T20:24:03.267Z,1.20
2023-03-13T20:26:30.388Z,1.10
2023-03-13T20:28:57.847Z,1.53
2023-03-13T20:31:27.878Z,1.20
2023-03-13T20:33:55.814Z,1.10
2023-03-13T20:36:23.727Z,1.00
2023-03-13T20:38:50.795Z,1.90
2023-03-13T20:41:20.974Z,0.97
2023-03-13T20:43:48.024Z,1.40
2023-03-13T20:46:15.084Z,1.20
2023-03-13T20:48:42.371Z,1.80
2023-03-13T20:51:09.611Z,1.17
2023-03-13T20:53:40.411Z,1.40
2023-03-13T20:56:08.277Z,1.10
2023-03-13T20:58:35.840Z,1.63
2023-03-13T21:01:03.969Z,1.30
2023-03-13T21:03:35.783Z,1.67
2023-03-13T21:06:13.572Z,1.43
2023-03-13T21:08:40.835Z,1.30
2023-03-13T21:11:20.133Z,0.80
2023-03-13T21:13:47.605Z,1.20
2023-03-13T21:16:14.786Z,1.40
2023-03-13T21:18:41.949Z,1.30
2023-03-13T21:21:13.135Z,1.67
2023-03-13T21:23:40.166Z,1.77
2023-03-13T21:26:07.656Z,1.40
2023-03-13T21:28:34.493Z,1.50
2023-03-13T21:31:11.308Z,1.10
2023-03-13T21:33:38.706Z,1.20
2023-03-13T21:36:06.049Z,1.27
2023-03-13T21:38:33.335Z,2.00
2023-03-13T21:41:00.543Z,1.30
2023-03-13T21:43:30.745Z,1.10
2023-03-13T21:45:59.241Z,1.40
2023-03-13T21:48:26.617Z,1.20
2023-03-13T21:50:53.720Z,1.43
2023-03-13T21:53:20.853Z,1.00
2023-03-13T21:55:51.741Z,1.17
2023-03-13T21:58:18.675Z,2.07
2023-03-13T22:00:45.794Z,1.10
2023-03-13T22:03:12.560Z,1.20
2023-03-13T22:05:43.412Z,1.27
2023-03-13T22:08:10.613Z,1.70
2023-03-13T22:10:37.967Z,1.17
2023-03-13T22:13:05.912Z,1.13
2023-03-13T22:15:33.205Z,1.20
2023-03-13T22:18:00.261Z,1.20
2023-03-13T22:20:27.348Z,1.53
2023-03-13T22:22:54.429Z,1.63
2023-03-13T22:25:21.339Z,1.50
2023-03-13T22:27:48.401Z,1.30
2023-03-13T22:30:15.244Z,1.10
2023-03-13T22:32:42.396Z,1.37
2023-03-13T22:35:09.633Z,1.63
2023-03-13T22:37:36.735Z,1.53
2023-03-13T22:40:04.117Z,1.30
2023-03-13T22:42:31.148Z,1.30
2023-03-13T22:44:57.932Z,1.60
2023-03-13T22:47:25.894Z,1.07
2023-03-13T22:49:53.612Z,1.30
2023-03-13T22:52:21.277Z,1.43
2023-03-13T22:54:48.389Z,1.37
2023-03-13T22:57:15.418Z,1.10
2023-03-13T22:59:42.025Z,1.20
2023-03-13T23:02:09.124Z,1.23
2023-03-13T23:04:36.501Z,1.20
2023-03-13T23:07:03.574Z,1.10
2023-03-13T23:09:30.621Z,1.17
2023-03-13T23:11:57.682Z,1.20
2023-03-13T23:14:28.873Z,1.13
2023-03-13T23:16:58.206Z,0.97
2023-03-13T23:19:25.260Z,0.87
2023-03-13T23:21:52.334Z,1.27
2023-03-13T23:24:19.389Z,1.23
2023-03-13T23:26:46.038Z,1.30
2023-03-13T23:29:14.074Z,1.23
2023-03-13T23:31:40.694Z,1.30
2023-03-13T23:34:07.733Z,1.23
2023-03-13T23:36:34.787Z,1.20
2023-03-13T23:39:02.859Z,1.20
2023-03-13T23:41:29.463Z,1.27
2023-03-13T23:43:56.548Z,1.00
2023-03-13T23:46:26.807Z,0.83
2023-03-13T23:48:54.460Z,1.00
2023-03-13T23:51:21.492Z,1.03
2023-03-13T23:53:48.591Z,1.17
2023-03-13T23:56:15.345Z,1.30
2023-03-13T23:58:42.497Z,1.37
